createdAt,value
2018-07-10T00:02:33.707Z,4.45
2018-07-10T00:06:16.727Z,3.75
2018-07-10T00:08:55.159Z,4.70
2018-07-10T00:11:28.602Z,4.42
2018-07-10T00:13:57.449Z,4.00
2018-07-10T00:16:26.679Z,3.90
2018-07-10T00:18:56.393Z,5.22
2018-07-10T00:21:25.612Z,4.95
2018-07-10T00:23:54.733Z,4.25
2018-07-10T00:26:23.816Z,3.17
2018-07-10T00:28:53.044Z,4.53
2018-07-10T00:31:22.640Z,4.87
2018-07-10T00:33:52.487Z,4.75
2018-07-10T00:36:21.608Z,3.98
2018-07-10T00:39:00.165Z,4.10
2018-07-10T00:41:35.949Z,4.62
2018-07-10T00:44:05.969Z,4.58
2018-07-10T00:46:37.719Z,5.08
2018-07-10T00:49:07.003Z,4.17
2018-07-10T00:51:37.660Z,4.45
2018-07-10T00:54:07.252Z,4.12
2018-07-10T00:56:36.508Z,4.33
2018-07-10T00:59:06.860Z,4.00
2018-07-10T01:01:36.440Z,4.58
2018-07-10T01:04:05.565Z,4.20
2018-07-10T01:06:34.680Z,3.98
2018-07-10T01:09:05.071Z,4.42
2018-07-10T01:11:34.244Z,4.20
2018-07-10T01:14:03.132Z,3.62
2018-07-10T01:16:35.572Z,4.62
2018-07-10T01:19:06.847Z,3.80
2018-07-10T01:21:35.781Z,4.25
2018-07-10T01:24:05.252Z,4.35
2018-07-10T01:26:37.693Z,4.12
2018-07-10T01:29:12.987Z,4.35
2018-07-10T01:31:44.477Z,4.20
2018-07-10T01:34:14.018Z,4.30
2018-07-10T01:36:43.192Z,3.85
2018-07-10T01:39:12.099Z,3.92
2018-07-10T01:41:41.278Z,4.78
2018-07-10T01:44:10.580Z,4.42
2018-07-10T01:46:40.523Z,3.83
2018-07-10T01:49:10.400Z,3.62
2018-07-10T01:51:39.703Z,4.42
2018-07-10T01:54:09.312Z,4.22
2018-07-10T01:56:39.240Z,3.90
2018-07-10T01:59:08.627Z,4.53
2018-07-10T02:01:37.934Z,4.10
2018-07-10T02:04:07.864Z,3.87
2018-07-10T02:06:37.185Z,4.45
2018-07-10T02:09:06.280Z,3.95
2018-07-10T02:11:35.323Z,4.40
2018-07-10T02:14:04.644Z,4.97
2018-07-10T02:16:33.807Z,4.85
2018-07-10T02:19:03.137Z,4.33
2018-07-10T02:21:32.386Z,5.20
2018-07-10T02:24:01.701Z,5.40
2018-07-10T02:26:31.440Z,4.53
2018-07-10T02:29:00.701Z,4.00
2018-07-10T02:31:29.711Z,4.55
2018-07-10T02:33:58.638Z,4.25
2018-07-10T02:36:28.242Z,4.65
2018-07-10T02:38:58.542Z,4.70
2018-07-10T02:41:27.593Z,5.05
2018-07-10T02:44:02.569Z,4.90
2018-07-10T02:46:34.131Z,4.87
2018-07-10T02:49:11.335Z,4.78
2018-07-10T02:51:48.687Z,4.75
2018-07-10T02:54:18.174Z,4.97
2018-07-10T02:56:48.280Z,5.03
2018-07-10T02:59:17.594Z,4.60
2018-07-10T03:01:46.631Z,4.70
2018-07-10T03:04:16.068Z,5.20
2018-07-10T03:06:45.777Z,5.25
2018-07-10T03:09:15.926Z,4.72
2018-07-10T03:11:45.174Z,4.50
2018-07-10T03:14:15.000Z,5.25
2018-07-10T03:16:44.393Z,5.35
2018-07-10T03:19:14.327Z,6.22
2018-07-10T03:21:43.845Z,5.00
2018-07-10T03:24:13.536Z,5.50
2018-07-10T03:26:42.955Z,6.00
2018-07-10T03:29:12.762Z,5.87
2018-07-10T03:31:42.122Z,5.00
2018-07-10T03:34:11.281Z,4.78
2018-07-10T03:36:40.470Z,5.47
2018-07-10T03:39:09.684Z,5.20
2018-07-10T03:41:38.669Z,4.90
2018-07-10T03:44:07.568Z,6.00
2018-07-10T03:46:36.646Z,5.00
2018-07-10T03:49:05.759Z,4.50
2018-07-10T03:51:34.755Z,4.83
2018-07-10T03:54:04.530Z,5.25
2018-07-10T03:56:33.985Z,4.95
2018-07-10T03:59:03.301Z,5.22
2018-07-10T04:01:35.203Z,5.12
2018-07-10T04:04:04.455Z,6.20
2018-07-10T04:06:34.621Z,5.50
2018-07-10T04:09:05.366Z,6.40
2018-07-10T04:11:35.002Z,5.00
2018-07-10T04:14:04.804Z,5.92
2018-07-10T04:16:34.440Z,4.83
2018-07-10T04:19:03.702Z,5.70
2018-07-10T04:21:34.837Z,4.70
2018-07-10T04:24:14.323Z,5.08
2018-07-10T04:27:26.108Z,5.85
2018-07-10T04:31:03.192Z,6.10
2018-07-10T04:33:33.378Z,6.05
2018-07-10T04:36:02.617Z,5.25
2018-07-10T04:38:32.930Z,5.35
2018-07-10T04:41:08.600Z,5.92
2018-07-10T04:43:41.343Z,5.42
2018-07-10T04:46:10.623Z,5.40
2018-07-10T04:48:43.652Z,5.58
2018-07-10T04:51:24.529Z,5.08
2018-07-10T04:53:57.079Z,5.92
2018-07-10T04:56:26.528Z,5.55
2018-07-10T04:58:56.278Z,6.08
2018-07-10T05:01:30.840Z,5.50
2018-07-10T05:04:00.830Z,6.05
2018-07-10T05:06:30.992Z,7.10
2018-07-10T05:09:00.152Z,8.60
2018-07-10T05:11:30.336Z,7.67
2018-07-10T05:14:00.342Z,7.20
2018-07-10T05:16:30.406Z,6.53
2018-07-10T05:18:59.747Z,6.70
2018-07-10T05:21:29.570Z,6.12
2018-07-10T05:23:59.159Z,6.90
2018-07-10T05:26:28.255Z,5.00
2018-07-10T05:28:57.641Z,5.62
2018-07-10T05:31:26.957Z,5.83
2018-07-10T05:33:56.460Z,5.90
2018-07-10T05:36:26.453Z,5.85
2018-07-10T05:39:07.416Z,6.40
2018-07-10T05:41:43.502Z,6.03
2018-07-10T05:44:23.387Z,6.17
2018-07-10T05:46:53.620Z,5.12
2018-07-10T05:49:23.075Z,5.33
2018-07-10T05:51:52.697Z,5.58
2018-07-10T05:54:22.598Z,5.90
2018-07-10T05:56:51.879Z,5.22
2018-07-10T05:59:21.672Z,5.10
2018-07-10T06:01:51.010Z,5.72
2018-07-10T06:04:21.067Z,6.40
2018-07-10T06:06:49.808Z,6.72
2018-07-10T06:09:20.354Z,6.17
2018-07-10T06:11:49.319Z,6.47
2018-07-10T06:14:18.249Z,6.75
2018-07-10T06:16:47.244Z,6.92
2018-07-10T06:19:16.952Z,7.05
2018-07-10T06:21:49.168Z,7.20
2018-07-10T06:24:26.755Z,7.78
2018-07-10T06:27:00.984Z,7.97
2018-07-10T06:29:49.859Z,8.13
2018-07-10T06:32:20.520Z,6.87
2018-07-10T06:34:51.048Z,7.55
2018-07-10T06:37:32.263Z,7.58
2018-07-10T06:40:05.046Z,8.00
2018-07-10T06:42:49.219Z,9.40
2018-07-10T06:45:19.136Z,8.95
2018-07-10T06:47:49.966Z,7.40
2018-07-10T06:50:21.734Z,7.75
2018-07-10T06:52:53.051Z,8.13
2018-07-10T06:55:22.260Z,9.10
2018-07-10T06:57:54.054Z,9.05
2018-07-10T07:00:23.381Z,9.05
2018-07-10T07:02:53.859Z,10.00
2018-07-10T07:05:23.305Z,9.70
2018-07-10T07:07:52.680Z,9.00
2018-07-10T07:10:22.133Z,10.03
2018-07-10T07:12:51.345Z,10.40
2018-07-10T07:15:21.378Z,10.93
2018-07-10T07:17:53.315Z,10.53
2018-07-10T07:20:23.364Z,8.43
2018-07-10T07:22:53.549Z,9.90
2018-07-10T07:25:22.603Z,11.90
2018-07-10T07:27:52.050Z,8.78
2018-07-10T07:30:20.992Z,10.03
2018-07-10T07:32:49.891Z,10.82
2018-07-10T07:35:18.824Z,11.30
2018-07-10T07:37:48.156Z,10.05
2018-07-10T07:40:16.993Z,10.13
2018-07-10T07:42:47.728Z,8.78
2018-07-10T07:45:19.073Z,10.78
2018-07-10T07:47:48.334Z,8.75
2018-07-10T07:50:17.529Z,10.10
2018-07-10T07:52:46.660Z,10.60
2018-07-10T07:55:16.219Z,11.60
2018-07-10T07:57:45.387Z,11.10
2018-07-10T08:00:15.147Z,9.65
2018-07-10T08:02:44.331Z,10.45
2018-07-10T08:05:14.450Z,11.25
2018-07-10T08:07:43.636Z,11.65
2018-07-10T08:10:13.053Z,10.30
2018-07-10T08:12:42.436Z,10.58
2018-07-10T08:15:12.441Z,10.43
2018-07-10T08:17:41.584Z,11.20
2018-07-10T08:20:11.438Z,12.80
2018-07-10T08:22:40.376Z,13.22
2018-07-10T08:25:09.444Z,12.80
2018-07-10T08:27:38.748Z,13.62
2018-07-10T08:30:08.359Z,13.35
2018-07-10T08:32:38.015Z,14.73
2018-07-10T08:35:07.034Z,17.95
2018-07-10T08:37:36.098Z,15.50
2018-07-10T08:40:05.078Z,14.80
2018-07-10T08:42:34.101Z,16.27
2018-07-10T08:45:03.968Z,15.35
2018-07-10T08:47:34.002Z,18.10
2018-07-10T08:50:02.942Z,18.25
2018-07-10T08:52:32.593Z,21.25
2018-07-10T08:55:01.580Z,21.52
2018-07-10T08:57:30.585Z,20.25
2018-07-10T08:59:59.607Z,20.50
2018-07-10T09:02:28.613Z,18.73
2018-07-10T09:04:57.493Z,21.52
2018-07-10T09:07:26.525Z,18.87
2018-07-10T09:09:55.488Z,15.85
2018-07-10T09:12:24.471Z,17.87
2018-07-10T09:14:53.469Z,14.78
2018-07-10T09:17:22.445Z,17.40
2018-07-10T09:19:51.484Z,19.25
2018-07-10T09:22:20.472Z,17.92
2018-07-10T09:24:53.879Z,14.38
2018-07-10T09:27:23.885Z,12.58
2018-07-10T09:29:52.958Z,14.38
2018-07-10T09:32:27.788Z,14.43
2018-07-10T09:34:58.043Z,13.93
2018-07-10T09:37:33.457Z,12.13
2018-07-10T09:40:07.668Z,12.78
2018-07-10T09:42:38.671Z,14.07
2018-07-10T09:45:07.770Z,14.38
2018-07-10T09:47:36.788Z,12.80
2018-07-10T09:50:05.777Z,10.23
2018-07-10T09:52:34.774Z,11.05
2018-07-10T09:55:03.932Z,11.83
2018-07-10T09:57:33.677Z,11.95
2018-07-10T10:00:03.677Z,12.68
2018-07-10T10:02:33.572Z,11.15
2018-07-10T10:05:05.128Z,10.82
2018-07-10T10:07:34.287Z,12.40
2018-07-10T10:10:04.443Z,14.33
2018-07-10T10:12:33.976Z,13.50
2018-07-10T10:15:02.953Z,13.05
2018-07-10T10:17:32.212Z,12.78
2018-07-10T10:20:01.419Z,14.10
2018-07-10T10:22:32.170Z,13.18
2018-07-10T10:25:02.305Z,13.72
2018-07-10T10:27:31.664Z,14.23
2018-07-10T10:30:01.444Z,15.85
2018-07-10T10:32:30.481Z,14.60
2018-07-10T10:34:59.603Z,15.10
2018-07-10T10:37:28.694Z,14.95
2018-07-10T10:39:58.063Z,16.05
2018-07-10T10:42:27.834Z,13.13
2018-07-10T10:45:00.109Z,12.33
2018-07-10T10:47:29.216Z,14.47
2018-07-10T10:49:59.409Z,9.38
2018-07-10T10:52:28.940Z,10.20
2018-07-10T10:54:57.898Z,10.25
2018-07-10T10:57:28.496Z,12.70
2018-07-10T10:59:57.632Z,12.98
2018-07-10T11:02:30.389Z,8.85
2018-07-10T11:04:59.626Z,11.75
2018-07-10T11:07:30.117Z,11.45
2018-07-10T11:09:58.669Z,9.90
2018-07-10T11:12:29.055Z,8.70
2018-07-10T11:14:58.361Z,10.15
2018-07-10T11:17:32.281Z,9.50
2018-07-10T11:20:13.541Z,8.10
2018-07-10T11:23:03.000Z,8.80
2018-07-10T11:25:43.024Z,6.75
2018-07-10T11:28:13.242Z,6.55
2018-07-10T11:30:42.304Z,5.83
2018-07-10T11:33:11.824Z,5.80
2018-07-10T11:35:40.937Z,5.90
2018-07-10T11:38:13.884Z,6.00
2018-07-10T11:40:45.235Z,4.50
2018-07-10T11:43:14.454Z,3.50
2018-07-10T11:45:43.542Z,4.37
2018-07-10T11:48:12.656Z,4.30
2018-07-10T11:50:41.615Z,4.20
2018-07-10T11:53:10.633Z,3.30
2018-07-10T11:55:39.649Z,4.92
2018-07-10T11:58:09.172Z,4.70
2018-07-10T12:00:38.409Z,4.50
2018-07-10T12:03:07.779Z,4.40
2018-07-10T12:05:38.600Z,4.15
2018-07-10T12:08:07.763Z,3.60
2018-07-10T12:10:37.741Z,3.65
2018-07-10T12:13:06.905Z,4.22
2018-07-10T12:15:36.175Z,4.25
2018-07-10T12:18:05.244Z,4.58
2018-07-10T12:20:36.008Z,5.15
2018-07-10T12:23:06.384Z,4.50
2018-07-10T12:25:46.384Z,4.92
2018-07-10T12:28:15.912Z,4.55
2018-07-10T12:30:44.948Z,4.92
2018-07-10T12:33:13.934Z,4.50
2018-07-10T12:35:42.885Z,4.40
2018-07-10T12:38:11.943Z,5.15
2018-07-10T12:40:41.115Z,4.80
2018-07-10T12:43:10.164Z,4.50
2018-07-10T12:45:39.285Z,5.20
2018-07-10T12:48:08.633Z,4.60
2018-07-10T12:50:37.622Z,4.08
2018-07-10T12:53:06.740Z,5.72
2018-07-10T12:55:36.149Z,5.28
2018-07-10T12:58:05.626Z,4.40
2018-07-10T13:00:36.894Z,4.60
2018-07-10T13:03:07.402Z,4.67
2018-07-10T13:05:54.323Z,4.47
2018-07-10T13:08:23.724Z,4.70
2018-07-10T13:10:52.824Z,4.58
2018-07-10T13:13:22.066Z,4.87
2018-07-10T13:15:51.056Z,4.95
2018-07-10T13:18:22.241Z,5.35
2018-07-10T13:20:51.921Z,5.15
2018-07-10T13:23:21.281Z,4.78
2018-07-10T13:25:50.965Z,5.75
2018-07-10T13:28:20.056Z,5.85
2018-07-10T13:30:49.305Z,4.83
2018-07-10T13:33:19.062Z,4.87
2018-07-10T13:35:48.322Z,5.05
2018-07-10T13:38:19.685Z,5.75
2018-07-10T13:40:48.836Z,7.65
2018-07-10T13:43:17.948Z,5.08
2018-07-10T13:45:46.928Z,5.55
2018-07-10T13:48:16.208Z,5.37
2018-07-10T13:50:45.196Z,5.10
2018-07-10T13:53:14.465Z,5.83
2018-07-10T13:55:43.847Z,4.70
2018-07-10T13:58:18.220Z,4.78
2018-07-10T14:00:53.112Z,6.08
2018-07-10T14:03:23.035Z,4.17
2018-07-10T14:05:52.832Z,4.10
2018-07-10T14:08:22.070Z,3.50
2018-07-10T14:10:50.919Z,3.60
2018-07-10T14:13:20.149Z,2.08
2018-07-10T14:15:49.306Z,2.50
2018-07-10T14:18:18.805Z,2.77
2018-07-10T14:20:58.728Z,3.27
2018-07-10T14:23:28.261Z,3.87
2018-07-10T14:25:58.241Z,2.40
2018-07-10T14:28:28.093Z,3.37
2018-07-10T14:30:57.999Z,3.17
2018-07-10T14:33:27.533Z,2.70
2018-07-10T14:35:57.277Z,3.02
2018-07-10T14:38:28.269Z,2.83
2018-07-10T14:40:59.313Z,2.95
2018-07-10T14:43:31.450Z,2.90
2018-07-10T14:46:21.768Z,3.00
2018-07-10T14:48:59.130Z,3.35
2018-07-10T14:51:46.492Z,2.92
2018-07-10T14:54:15.869Z,3.67
2018-07-10T14:56:44.830Z,2.70
2018-07-10T14:59:13.802Z,3.30
2018-07-10T15:01:42.932Z,3.05
2018-07-10T15:04:11.800Z,3.12
2018-07-10T15:06:41.106Z,3.17
2018-07-10T15:09:10.713Z,2.65
2018-07-10T15:11:41.342Z,2.90
2018-07-10T15:14:11.315Z,2.15
2018-07-10T15:16:45.512Z,2.52
2018-07-10T15:19:16.072Z,2.10
2018-07-10T15:21:45.394Z,2.30
2018-07-10T15:24:14.493Z,2.80
2018-07-10T15:26:43.764Z,2.55
2018-07-10T15:29:17.346Z,2.90
2018-07-10T15:31:46.742Z,2.72
2018-07-10T15:34:16.148Z,2.80
2018-07-10T15:36:45.316Z,2.70
2018-07-10T15:39:14.765Z,3.20
2018-07-10T15:41:44.087Z,2.87
2018-07-10T15:44:13.757Z,2.95
2018-07-10T15:46:42.937Z,3.10
2018-07-10T15:49:13.063Z,2.95
2018-07-10T15:51:42.087Z,2.40
2018-07-10T15:54:11.392Z,2.80
2018-07-10T15:56:41.147Z,3.12
2018-07-10T15:59:10.379Z,2.80
2018-07-10T16:01:39.686Z,2.80
2018-07-10T16:04:08.992Z,2.90
2018-07-10T16:06:38.392Z,2.33
2018-07-10T16:09:16.824Z,2.70
2018-07-10T16:11:46.333Z,2.90
2018-07-10T16:14:15.310Z,2.37
2018-07-10T16:16:44.315Z,2.90
2018-07-10T16:19:15.488Z,2.47
2018-07-10T16:21:56.242Z,3.17
2018-07-10T16:24:26.284Z,3.37
2018-07-10T16:26:55.907Z,3.05
2018-07-10T16:29:25.715Z,2.87
2018-07-10T16:31:57.728Z,3.75
2018-07-10T16:34:27.079Z,3.33
2018-07-10T16:36:56.568Z,2.70
2018-07-10T16:39:25.673Z,3.77
2018-07-10T16:42:00.019Z,3.65
2018-07-10T16:44:28.776Z,2.85
2018-07-10T16:47:07.805Z,3.42
2018-07-10T16:49:43.073Z,3.30
2018-07-10T16:52:25.514Z,3.83
2018-07-10T16:54:54.867Z,3.67
2018-07-10T16:57:24.025Z,3.98
2018-07-10T16:59:53.819Z,4.37
2018-07-10T17:02:22.908Z,4.45
2018-07-10T17:04:52.301Z,4.10
2018-07-10T17:07:22.047Z,3.80
2018-07-10T17:09:51.188Z,5.05
2018-07-10T17:12:20.337Z,4.03
2018-07-10T17:14:57.324Z,5.20
2018-07-10T17:17:26.886Z,4.50
2018-07-10T17:19:56.935Z,3.75
2018-07-10T17:22:26.492Z,4.00
2018-07-10T17:24:56.717Z,4.20
2018-07-10T17:27:32.776Z,5.08
2018-07-10T17:30:02.598Z,4.37
2018-07-10T17:32:31.868Z,5.62
2018-07-10T17:35:01.215Z,4.90
2018-07-10T17:37:31.849Z,5.17
2018-07-10T17:40:04.328Z,4.92
2018-07-10T17:42:36.060Z,4.40
2018-07-10T17:45:06.290Z,6.03
2018-07-10T17:47:36.069Z,4.25
2018-07-10T17:50:07.568Z,5.90
2018-07-10T17:52:37.605Z,5.80
2018-07-10T17:55:06.768Z,6.50
2018-07-10T17:57:36.560Z,5.62
2018-07-10T18:00:06.633Z,6.17
2018-07-10T18:02:35.681Z,6.10
2018-07-10T18:05:04.894Z,7.45
2018-07-10T18:07:34.756Z,6.25
2018-07-10T18:10:03.949Z,6.92
2018-07-10T18:12:33.247Z,7.03
2018-07-10T18:15:02.395Z,7.05
2018-07-10T18:17:31.720Z,7.20
2018-07-10T18:20:01.668Z,7.17
2018-07-10T18:22:30.968Z,7.10
2018-07-10T18:25:00.267Z,7.90
2018-07-10T18:27:29.600Z,8.38
2018-07-10T18:29:59.211Z,7.70
2018-07-10T18:32:28.374Z,7.35
2018-07-10T18:34:58.066Z,8.80
2018-07-10T18:37:27.180Z,8.23
2018-07-10T18:39:56.190Z,8.28
2018-07-10T18:42:25.730Z,7.65
2018-07-10T18:44:55.045Z,8.85
2018-07-10T18:47:24.501Z,9.45
2018-07-10T18:49:55.663Z,8.20
2018-07-10T18:52:31.215Z,8.90
2018-07-10T18:55:01.890Z,8.95
2018-07-10T18:59:49.282Z,8.60
2018-07-10T19:02:28.206Z,10.65
2018-07-10T19:05:06.262Z,10.23
2018-07-10T19:07:43.256Z,10.18
2018-07-10T19:10:12.556Z,11.48
2018-07-10T19:12:43.425Z,12.37
2018-07-10T19:15:12.455Z,10.78
2018-07-10T19:17:41.820Z,11.85
2018-07-10T19:20:11.948Z,11.50
2018-07-10T19:22:52.547Z,11.08
2018-07-10T19:25:22.238Z,12.05
2018-07-10T19:27:53.385Z,10.75
2018-07-10T19:30:28.828Z,12.70
2018-07-10T19:32:58.097Z,13.35
2018-07-10T19:35:27.353Z,12.58
2018-07-10T19:37:56.412Z,12.55
2018-07-10T19:40:26.016Z,14.13
2018-07-10T19:42:55.419Z,12.63
2018-07-10T19:45:24.684Z,13.05
2018-07-10T19:47:54.940Z,14.15
2018-07-10T19:50:24.196Z,11.83
2018-07-10T19:52:55.394Z,14.18
2018-07-10T19:55:27.069Z,14.10
2018-07-10T19:58:34.169Z,12.60
2018-07-10T20:02:06.833Z,13.95
2018-07-10T20:05:14.789Z,14.87
2018-07-10T20:07:50.309Z,17.17
2018-07-10T20:10:47.949Z,17.25
2018-07-10T20:13:49.727Z,15.48
2018-07-10T20:16:29.208Z,16.75
2018-07-10T20:19:14.325Z,15.80
2018-07-10T20:21:57.489Z,16.65
2018-07-10T20:24:28.072Z,17.75
2018-07-10T20:27:09.604Z,16.93
2018-07-10T20:30:02.540Z,18.15
2018-07-10T20:32:40.653Z,17.10
2018-07-10T20:35:14.056Z,17.30
2018-07-10T20:37:43.707Z,19.25
2018-07-10T20:40:15.797Z,18.98
2018-07-10T20:42:45.708Z,18.32
2018-07-10T20:45:14.895Z,18.73
2018-07-10T20:47:51.009Z,19.20
2018-07-10T20:50:41.734Z,18.82
2018-07-10T20:53:50.465Z,18.55
2018-07-10T20:56:29.873Z,19.73
2018-07-10T20:59:01.581Z,22.00
2018-07-10T21:01:31.511Z,20.52
2018-07-10T21:04:12.911Z,21.20
2018-07-10T21:06:49.728Z,22.42
2018-07-10T21:09:21.063Z,24.63
2018-07-10T21:11:58.829Z,24.95
2018-07-10T21:15:06.368Z,24.50
2018-07-10T21:20:16.641Z,24.32
2018-07-10T21:23:02.256Z,25.23
2018-07-10T21:25:36.944Z,24.95
2018-07-10T21:28:13.829Z,24.43
2018-07-10T21:30:56.659Z,25.55
2018-07-10T21:34:00.125Z,24.77
2018-07-10T21:36:40.488Z,25.80
2018-07-10T21:39:20.753Z,23.27
2018-07-10T21:42:04.613Z,22.00
2018-07-10T21:44:45.482Z,21.35
2018-07-10T21:47:23.785Z,23.20
2018-07-10T21:49:55.727Z,22.02
2018-07-10T21:52:25.588Z,21.93
2018-07-10T21:54:55.400Z,23.77
2018-07-10T21:57:26.253Z,21.73
2018-07-10T21:59:57.531Z,21.50
2018-07-10T22:02:26.912Z,22.58
2018-07-10T22:04:59.055Z,21.48
2018-07-10T22:07:29.745Z,21.30
2018-07-10T22:10:08.797Z,21.25
2018-07-10T22:12:44.911Z,21.57
2018-07-10T22:15:14.196Z,20.10
2018-07-10T22:17:44.320Z,20.15
2018-07-10T22:20:13.805Z,21.73
2018-07-10T22:22:42.687Z,21.25
2018-07-10T22:25:11.755Z,21.55
2018-07-10T22:27:42.143Z,20.65
2018-07-10T22:30:19.009Z,23.57
2018-07-10T22:32:53.196Z,21.82
2018-07-10T22:35:22.239Z,21.85
2018-07-10T22:37:51.467Z,22.48
2018-07-10T22:40:20.788Z,18.95
2018-07-10T22:42:50.124Z,20.57
2018-07-10T22:45:19.831Z,23.05
2018-07-10T22:47:50.027Z,21.37
2018-07-10T22:50:21.243Z,21.25
2018-07-10T22:53:00.280Z,21.70
2018-07-10T22:55:31.409Z,23.12
2018-07-10T22:58:05.664Z,24.47
2018-07-10T23:00:36.100Z,22.85
2018-07-10T23:03:24.466Z,23.22
2018-07-10T23:05:54.233Z,24.15
2018-07-10T23:08:31.503Z,22.35
2018-07-10T23:11:02.484Z,22.95
2018-07-10T23:13:32.043Z,22.27
2018-07-10T23:16:01.237Z,23.55
2018-07-10T23:18:30.532Z,28.35
2018-07-10T23:20:59.853Z,26.17
2018-07-10T23:23:29.906Z,26.77
2018-07-10T23:25:59.183Z,25.57
2018-07-10T23:28:30.057Z,25.80
2018-07-10T23:31:00.125Z,27.62
2018-07-10T23:33:29.286Z,27.30
2018-07-10T23:35:58.996Z,27.77
2018-07-10T23:38:41.568Z,27.55
2018-07-10T23:42:48.678Z,26.93
2018-07-10T23:45:22.954Z,28.45
2018-07-10T23:47:53.608Z,35.40
2018-07-10T23:50:27.344Z,36.28
2018-07-10T23:53:07.218Z,37.67
2018-07-10T23:55:37.380Z,35.85
2018-07-10T23:58:06.726Z,34.60
